Time;durP1;ratioP1;P1;durP2;ratioP2;P2;SDS_P1;SDS_P2;PMS_P1;PMS_P2;Temp;Humidity;BMP_temperature;BMP_pressure;BME280_temperature;BME280_humidity;BME280_pressure;Samples;Min_cycle;Max_cycle;Signal;HPM_P1;HPM_P2
2021/11/04 00:00:34;;;;;;;23.87;22.47;;;9.10;99.90;;;;;;5110920;28;20453;-75
2021/11/04 00:03:01;;;;;;;24.83;23.13;;;9.10;99.90;;;;;;5110886;28;20473;-75
2021/11/04 00:05:30;;;;;;;24.20;22.57;;;9.10;99.90;;;;;;5110893;28;20943;-75
2021/11/04 00:07:59;;;;;;;24.87;23.07;;;9.10;99.90;;;;;;5111049;28;20456;-75
2021/11/04 00:10:27;;;;;;;25.40;23.53;;;9.00;99.90;;;;;;5110570;28;20464;-75
2021/11/04 00:12:55;;;;;;;23.60;22.03;;;8.90;99.90;;;;;;5111220;28;20441;-74
2021/11/04 00:15:22;;;;;;;23.63;22.10;;;9.00;99.90;;;;;;5111088;28;20841;-75
2021/11/04 00:17:48;;;;;;;24.43;22.87;;;9.00;99.90;;;;;;5111200;28;20449;-75
2021/11/04 00:20:17;;;;;;;21.57;20.20;;;9.10;99.90;;;;;;5110763;28;20445;-75
2021/11/04 00:22:45;;;;;;;25.03;23.00;;;9.10;99.90;;;;;;5110577;28;20511;-74
2021/11/04 00:25:12;;;;;;;23.30;21.70;;;9.10;99.90;;;;;;5110852;28;20742;-75
2021/11/04 00:27:39;;;;;;;24.10;22.50;;;9.20;99.90;;;;;;5110834;28;20494;-75
2021/11/04 00:30:09;;;;;;;22.40;20.80;;;9.10;99.90;;;;;;5110655;28;20840;-75
2021/11/04 00:32:36;;;;;;;25.53;22.83;;;9.10;99.90;;;;;;5111024;28;20800;-74
2021/11/04 00:35:04;;;;;;;26.33;24.50;;;9.20;99.90;;;;;;5110975;28;20449;-75
2021/11/04 00:37:31;;;;;;;24.60;22.87;;;9.20;99.90;;;;;;5110423;28;20452;-75
2021/11/04 00:39:57;;;;;;;23.20;21.60;;;9.20;99.90;;;;;;5110707;28;21016;-74
2021/11/04 00:42:24;;;;;;;25.03;23.13;;;9.30;99.90;;;;;;5110535;28;20478;-74
2021/11/04 00:44:51;;;;;;;23.03;21.63;;;9.30;99.90;;;;;;5110922;28;20510;-74
2021/11/04 00:47:19;;;;;;;21.20;19.90;;;9.30;99.90;;;;;;5110722;28;20935;-74
2021/11/04 00:49:46;;;;;;;22.80;21.20;;;9.10;99.90;;;;;;5110682;28;20472;-74
2021/11/04 00:52:12;;;;;;;21.37;19.90;;;9.10;99.90;;;;;;5110374;28;20452;-74
2021/11/04 00:54:39;;;;;;;20.00;18.70;;;9.10;99.90;;;;;;5110450;28;20456;-75
2021/11/04 00:57:06;;;;;;;17.37;16.47;;;9.00;99.90;;;;;;5110900;28;20445;-73
2021/11/04 00:59:33;;;;;;;19.63;18.40;;;9.00;99.90;;;;;;5110621;28;20446;-74
2021/11/04 01:01:59;;;;;;;22.47;20.93;;;9.10;99.90;;;;;;5110404;28;20445;-75
2021/11/04 01:04:27;;;;;;;19.90;18.67;;;9.10;99.90;;;;;;5110354;28;20518;-75
2021/11/04 01:06:54;;;;;;;19.07;17.97;;;9.00;99.90;;;;;;5110527;28;20447;-74
2021/11/04 01:09:21;;;;;;;19.63;18.43;;;9.10;99.90;;;;;;5110480;28;20500;-74
2021/11/04 01:11:47;;;;;;;18.67;17.57;;;9.10;99.90;;;;;;5110609;28;20437;-75
2021/11/04 01:14:14;;;;;;;18.80;17.77;;;9.10;99.90;;;;;;5110372;28;20528;-75
2021/11/04 01:16:42;;;;;;;16.47;15.67;;;9.10;99.90;;;;;;5110248;28;20446;-73
2021/11/04 01:19:11;;;;;;;15.23;14.43;;;9.10;99.90;;;;;;5110860;28;20891;-75
2021/11/04 01:21:39;;;;;;;12.40;11.90;;;9.10;99.90;;;;;;5110511;28;20544;-74
2021/11/04 01:24:07;;;;;;;13.07;12.47;;;9.00;99.90;;;;;;5110515;28;20840;-73
2021/11/04 01:26:34;;;;;;;12.30;11.80;;;9.10;99.90;;;;;;5110203;28;20568;-74
2021/11/04 01:29:01;;;;;;;13.37;12.57;;;9.20;99.90;;;;;;5110141;28;20480;-74
2021/11/04 01:31:27;;;;;;;13.57;12.87;;;9.30;99.90;;;;;;5110374;28;20832;-74
2021/11/04 01:33:54;;;;;;;13.27;12.73;;;9.40;99.90;;;;;;5110660;28;20449;-74
2021/11/04 01:36:21;;;;;;;12.83;12.33;;;9.40;99.90;;;;;;5110218;28;20933;-75
2021/11/04 01:38:49;;;;;;;12.30;11.70;;;9.40;99.90;;;;;;5110172;28;20458;-74
2021/11/04 01:41:16;;;;;;;12.10;11.60;;;9.50;99.90;;;;;;5110366;28;20498;-74
2021/11/04 01:43:43;;;;;;;12.50;12.00;;;9.50;99.90;;;;;;5110122;28;20587;-74
2021/11/04 01:46:11;;;;;;;12.50;11.87;;;9.50;99.90;;;;;;5110016;28;20537;-75
2021/11/04 01:48:39;;;;;;;13.00;12.50;;;9.60;99.90;;;;;;5110130;28;20470;-74
2021/11/04 01:51:06;;;;;;;11.87;11.37;;;9.60;99.90;;;;;;5113156;28;20442;-76
2021/11/04 01:53:32;;;;;;;13.00;12.50;;;9.70;99.90;;;;;;5113849;28;20825;-75
2021/11/04 01:56:00;;;;;;;15.47;14.90;;;9.70;99.90;;;;;;5113624;28;20453;-78
2021/11/04 01:58:27;;;;;;;17.17;16.47;;;9.40;99.90;;;;;;5113662;28;20448;-76
2021/11/04 02:00:54;;;;;;;19.53;18.73;;;9.20;99.90;;;;;;5113552;28;20484;-78
2021/11/04 02:03:29;;;;;;;20.97;20.13;;;9.20;99.90;;;;;;5113842;28;20609;-75
2021/11/04 02:06:03;;;;;;;21.10;19.87;;;9.10;99.90;;;;;;5113510;27;20448;-75
2021/11/04 02:08:37;;;;;;;21.07;20.27;;;9.10;99.90;;;;;;5113513;28;20502;-77
2021/11/04 02:11:11;;;;;;;21.70;20.80;;;8.90;99.90;;;;;;5114011;28;20433;-76
2021/11/04 02:13:46;;;;;;;23.10;22.17;;;8.90;99.90;;;;;;5113526;28;20447;-76
2021/11/04 02:16:16;;;;;;;24.00;22.70;;;8.80;99.90;;;;;;5113210;28;20954;-75
2021/11/04 02:18:43;;;;;;;26.47;25.13;;;8.70;99.90;;;;;;5113318;28;20453;-76
2021/11/04 02:21:13;;;;;;;26.23;25.07;;;8.70;99.90;;;;;;5113268;27;20445;-77
2021/11/04 02:23:48;;;;;;;26.50;25.37;;;8.70;99.90;;;;;;5113206;28;20500;-77
2021/11/04 02:26:16;;;;;;;26.90;25.70;;;8.60;99.90;;;;;;5113256;28;20543;-75
2021/11/04 02:28:44;;;;;;;26.57;25.40;;;8.60;99.90;;;;;;5112579;28;20457;-75
2021/11/04 02:31:11;;;;;;;28.53;27.23;;;8.60;99.90;;;;;;5113031;28;20518;-76
2021/11/04 02:33:39;;;;;;;28.50;27.10;;;8.60;99.90;;;;;;5113148;28;20731;-75
2021/11/04 02:36:06;;;;;;;28.90;27.60;;;8.60;99.90;;;;;;5113098;28;20562;-75
2021/11/04 02:38:34;;;;;;;28.70;27.30;;;8.60;99.90;;;;;;5113187;28;20529;-73
2021/11/04 02:41:02;;;;;;;30.00;28.60;;;8.40;99.90;;;;;;5112808;28;20456;-75
2021/11/04 02:43:33;;;;;;;29.33;28.13;;;8.40;99.90;;;;;;5112772;28;20725;-74
2021/11/04 02:46:01;;;;;;;30.60;29.23;;;8.40;99.90;;;;;;5112955;28;20437;-73
2021/11/04 02:48:29;;;;;;;30.83;29.33;;;8.30;99.90;;;;;;5112830;28;20437;-73
2021/11/04 02:50:56;;;;;;;32.17;30.50;;;8.20;99.90;;;;;;5112601;28;20927;-74
2021/11/04 02:53:25;;;;;;;31.17;29.77;;;8.20;99.90;;;;;;5112835;28;20802;-74
2021/11/04 02:55:53;;;;;;;32.07;30.67;;;8.20;99.90;;;;;;5112824;28;20449;-79
2021/11/04 02:58:20;;;;;;;31.37;29.77;;;8.30;99.90;;;;;;5113169;28;20498;-77
2021/11/04 03:00:51;;;;;;;32.30;30.90;;;8.20;99.90;;;;;;5111802;28;20441;-76
2021/11/04 03:03:18;;;;;;;32.40;30.90;;;8.20;99.90;;;;;;5112884;28;20472;-77
2021/11/04 03:05:46;;;;;;;32.47;30.97;;;8.20;99.90;;;;;;5112724;28;20449;-76
2021/11/04 03:08:13;;;;;;;32.07;30.67;;;8.20;99.90;;;;;;5112357;28;20692;-77
2021/11/04 03:10:40;;;;;;;31.20;29.80;;;8.10;99.90;;;;;;5112140;28;20456;-75
2021/11/04 03:13:07;;;;;;;31.80;30.20;;;8.10;99.90;;;;;;5112832;28;20510;-76
2021/11/04 03:15:37;;;;;;;31.57;30.17;;;8.00;99.90;;;;;;5112379;27;20453;-75
2021/11/04 03:18:05;;;;;;;32.00;30.40;;;7.90;99.90;;;;;;5112544;28;20457;-76
2021/11/04 03:20:34;;;;;;;31.33;29.83;;;7.80;99.90;;;;;;5112436;28;20449;-77
2021/11/04 03:23:02;;;;;;;31.70;30.30;;;7.90;99.90;;;;;;5111809;28;20480;-76
2021/11/04 03:25:29;;;;;;;31.83;30.37;;;7.90;99.90;;;;;;5112192;28;20450;-76
2021/11/04 03:27:57;;;;;;;32.70;31.20;;;7.80;99.90;;;;;;5111806;28;20499;-77
2021/11/04 03:30:26;;;;;;;31.40;29.90;;;7.80;99.90;;;;;;5111456;28;20480;-74
2021/11/04 03:32:56;;;;;;;33.00;31.50;;;7.90;99.90;;;;;;5112194;28;20832;-77
2021/11/04 03:35:26;;;;;;;32.60;30.90;;;7.90;99.90;;;;;;5111988;28;20445;-77
2021/11/04 03:37:54;;;;;;;32.27;30.77;;;7.90;99.90;;;;;;5111716;28;20506;-76
2021/11/04 03:40:22;;;;;;;32.57;31.07;;;7.90;99.90;;;;;;5112083;28;20449;-77
2021/11/04 03:42:50;;;;;;;31.10;29.60;;;7.90;99.90;;;;;;5111958;28;20476;-76
2021/11/04 03:45:20;;;;;;;31.60;30.20;;;7.90;99.90;;;;;;5112048;28;20819;-77
2021/11/04 03:47:47;;;;;;;30.27;28.87;;;7.90;99.90;;;;;;5111708;28;20449;-76
2021/11/04 03:50:16;;;;;;;28.90;27.60;;;7.80;99.90;;;;;;5111603;28;20445;-76
2021/11/04 03:52:45;;;;;;;29.50;28.00;;;7.80;99.90;;;;;;5111391;28;20457;-75
2021/11/04 03:55:14;;;;;;;29.27;27.87;;;7.80;99.90;;;;;;5111730;28;20452;-76
2021/11/04 03:57:41;;;;;;;30.23;28.83;;;7.80;99.90;;;;;;5111456;28;20857;-76
2021/11/04 04:00:12;;;;;;;29.43;28.13;;;7.70;99.90;;;;;;5111476;28;20448;-76
2021/11/04 04:02:38;;;;;;;29.60;28.40;;;7.60;99.90;;;;;;5111347;28;20965;-76
2021/11/04 04:05:06;;;;;;;29.37;28.10;;;7.60;99.90;;;;;;5111158;28;21024;-76
2021/11/04 04:07:33;;;;;;;27.87;26.70;;;7.60;99.90;;;;;;5111215;28;20445;-75
2021/11/04 04:10:01;;;;;;;28.13;26.93;;;7.60;99.90;;;;;;5110033;28;20441;-74
2021/11/04 04:12:28;;;;;;;28.00;26.90;;;7.60;99.90;;;;;;5109232;28;20444;-74
2021/11/04 04:14:55;;;;;;;27.80;26.70;;;7.60;99.90;;;;;;5109646;28;20433;-73
2021/11/04 04:17:22;;;;;;;28.30;27.17;;;7.60;99.90;;;;;;5110074;28;20449;-73
2021/11/04 04:19:49;;;;;;;28.17;26.80;;;7.60;99.90;;;;;;5109950;28;20441;-74
2021/11/04 04:22:16;;;;;;;28.00;26.53;;;7.50;99.90;;;;;;5110047;28;20441;-73
2021/11/04 04:24:43;;;;;;;27.17;26.13;;;7.50;99.90;;;;;;5109457;28;21029;-73
2021/11/04 04:27:12;;;;;;;27.70;26.50;;;7.50;99.90;;;;;;5109714;28;20437;-74
2021/11/04 04:29:38;;;;;;;28.07;26.87;;;7.50;99.90;;;;;;5109615;28;20488;-74
2021/11/04 04:32:07;;;;;;;27.30;26.20;;;7.50;99.90;;;;;;5109827;28;20479;-75
2021/11/04 04:34:34;;;;;;;27.73;26.53;;;7.60;99.90;;;;;;5109644;28;20813;-75
2021/11/04 04:37:00;;;;;;;27.57;26.37;;;7.60;99.90;;;;;;5109785;28;20441;-76
2021/11/04 04:39:28;;;;;;;27.70;26.60;;;7.60;99.90;;;;;;5109297;28;20446;-75
2021/11/04 04:41:54;;;;;;;28.37;27.03;;;7.70;99.90;;;;;;5109508;28;20438;-74
2021/11/04 04:44:22;;;;;;;27.03;25.93;;;7.70;99.90;;;;;;5109619;28;20475;-75
2021/11/04 04:46:49;;;;;;;28.30;27.10;;;7.70;99.90;;;;;;5109819;28;20449;-75
2021/11/04 04:49:16;;;;;;;27.37;26.27;;;7.70;99.90;;;;;;5109484;28;20452;-76
2021/11/04 04:51:42;;;;;;;26.40;25.40;;;7.70;99.90;;;;;;5109577;28;20445;-75
2021/11/04 04:54:09;;;;;;;25.83;24.83;;;7.70;99.90;;;;;;5109502;28;20444;-75
2021/11/04 04:56:36;;;;;;;26.50;25.50;;;7.60;99.90;;;;;;5109681;28;20471;-75
2021/11/04 04:59:03;;;;;;;27.43;26.33;;;7.50;99.90;;;;;;5109175;28;20437;-75
2021/11/04 05:01:31;;;;;;;27.10;26.00;;;7.50;99.90;;;;;;5109356;28;20441;-75
2021/11/04 05:03:58;;;;;;;25.70;24.70;;;7.50;99.90;;;;;;5109220;28;20501;-75
2021/11/04 05:06:24;;;;;;;26.03;24.93;;;7.50;99.90;;;;;;5110276;28;20450;-74
2021/11/04 05:08:51;;;;;;;26.60;25.53;;;7.40;99.90;;;;;;5110729;28;20452;-74
2021/11/04 05:11:18;;;;;;;25.90;24.90;;;7.40;99.90;;;;;;5110527;28;20513;-74
2021/11/04 05:13:45;;;;;;;26.60;25.60;;;7.50;99.90;;;;;;5110495;28;20444;-74
2021/11/04 05:16:11;;;;;;;26.10;25.10;;;7.50;99.90;;;;;;5110389;28;20452;-74
2021/11/04 05:18:40;;;;;;;26.77;25.67;;;7.60;99.90;;;;;;5110652;28;20962;-75
2021/11/04 05:21:06;;;;;;;27.40;26.20;;;7.60;99.90;;;;;;5110417;28;20442;-76
2021/11/04 05:23:33;;;;;;;26.50;25.50;;;7.70;99.90;;;;;;5110646;28;20465;-75
2021/11/04 05:26:00;;;;;;;25.53;24.53;;;7.60;99.90;;;;;;5114404;27;20453;-75
2021/11/04 05:28:27;;;;;;;26.63;25.63;;;7.60;99.90;;;;;;5114604;28;20519;-74
2021/11/04 05:30:55;;;;;;;25.90;24.90;;;7.60;99.90;;;;;;5113763;28;20473;-75
2021/11/04 05:33:21;;;;;;;26.90;25.80;;;7.50;99.90;;;;;;5114618;28;20456;-74
2021/11/04 05:35:49;;;;;;;24.27;23.37;;;7.60;99.90;;;;;;5114363;28;21011;-73
2021/11/04 05:38:16;;;;;;;25.93;24.93;;;7.50;99.90;;;;;;5114099;28;20445;-74
2021/11/04 05:40:43;;;;;;;24.40;23.40;;;7.40;99.90;;;;;;5114179;28;20453;-76
2021/11/04 05:43:09;;;;;;;23.20;22.30;;;7.30;99.90;;;;;;5114066;28;20501;-76
2021/11/04 05:45:36;;;;;;;22.73;21.83;;;7.20;99.90;;;;;;5114286;28;20485;-73
2021/11/04 05:48:03;;;;;;;22.07;21.17;;;7.30;99.90;;;;;;5114238;28;20518;-77
2021/11/04 05:50:30;;;;;;;22.10;21.30;;;7.30;99.90;;;;;;5113880;28;20449;-74
2021/11/04 05:53:00;;;;;;;22.07;21.27;;;7.40;99.90;;;;;;5113995;28;20502;-74
2021/11/04 05:55:26;;;;;;;22.77;21.97;;;7.40;99.90;;;;;;5113984;28;20645;-74
2021/11/04 05:57:53;;;;;;;21.90;21.10;;;7.40;99.90;;;;;;5113834;27;20457;-74
2021/11/04 06:00:20;;;;;;;22.67;21.87;;;7.50;99.90;;;;;;5114166;28;20441;-74
2021/11/04 06:02:46;;;;;;;21.20;20.50;;;7.50;99.90;;;;;;5114142;28;20452;-72
2021/11/04 06:05:13;;;;;;;21.43;20.63;;;7.50;99.90;;;;;;5113465;28;20542;-73
2021/11/04 06:07:40;;;;;;;21.90;21.10;;;7.50;99.90;;;;;;5112095;28;20517;-74
2021/11/04 06:10:08;;;;;;;20.50;19.70;;;7.50;99.90;;;;;;5112666;28;20444;-74
2021/11/04 06:12:35;;;;;;;20.27;19.57;;;7.40;99.90;;;;;;5112537;28;20560;-73
2021/11/04 06:15:01;;;;;;;19.70;19.00;;;7.30;99.90;;;;;;5111895;28;20437;-73
2021/11/04 06:17:28;;;;;;;19.53;18.83;;;7.30;99.90;;;;;;5112323;27;20516;-74
2021/11/04 06:19:55;;;;;;;18.20;17.60;;;7.30;99.90;;;;;;5113373;28;20461;-73
2021/11/04 06:22:21;;;;;;;17.30;16.70;;;7.40;99.90;;;;;;5113704;28;20448;-76
2021/11/04 06:24:48;;;;;;;18.10;17.50;;;7.40;99.90;;;;;;5113645;27;20477;-76
2021/11/04 06:27:16;;;;;;;17.80;17.20;;;7.40;99.90;;;;;;5113283;28;20451;-77
2021/11/04 06:29:43;;;;;;;18.30;17.60;;;7.40;99.90;;;;;;5112943;27;20484;-75
2021/11/04 06:32:09;;;;;;;19.63;17.90;;;7.50;99.90;;;;;;5113374;28;20517;-74
2021/11/04 06:34:36;;;;;;;17.83;17.13;;;7.60;99.90;;;;;;5113482;28;20468;-75
2021/11/04 06:37:03;;;;;;;17.70;17.07;;;7.60;99.90;;;;;;5112582;28;20457;-75
2021/11/04 06:39:30;;;;;;;16.80;16.20;;;7.50;99.90;;;;;;5113157;28;20475;-75
2021/11/04 06:41:56;;;;;;;17.23;16.53;;;7.60;99.90;;;;;;5113148;28;20445;-76
2021/11/04 06:44:24;;;;;;;16.10;15.50;;;7.60;99.90;;;;;;5113035;28;20480;-81
2021/11/04 06:46:51;;;;;;;17.10;16.40;;;7.70;99.90;;;;;;5113187;28;20446;-75
2021/11/04 06:49:19;;;;;;;14.17;13.57;;;7.70;99.90;;;;;;5112955;28;20855;-71
2021/11/04 06:51:49;;;;;;;13.37;12.87;;;7.70;99.90;;;;;;5110478;28;20485;-70
2021/11/04 06:55:02;;;;;;;15.27;14.63;;;7.50;99.90;;;;;;5112117;28;20933;-70
2021/11/04 06:57:29;;;;;;;16.40;15.80;;;7.60;99.90;;;;;;5091180;28;20816;-70
2021/11/04 07:00:01;;;;;;;14.93;14.43;;;7.60;99.90;;;;;;5112328;28;20728;-70
2021/11/04 07:02:33;;;;;;;14.57;14.07;;;7.60;99.90;;;;;;5112326;28;21085;-72
2021/11/04 07:05:01;;;;;;;16.37;15.67;;;7.70;99.90;;;;;;5112177;27;20510;-71
2021/11/04 07:07:28;;;;;;;16.17;15.57;;;7.80;99.90;;;;;;5112094;28;20457;-71
2021/11/04 07:09:55;;;;;;;16.40;15.87;;;7.70;99.90;;;;;;5112022;28;20448;-70
2021/11/04 07:12:22;;;;;;;16.30;15.70;;;7.70;99.90;;;;;;5112081;28;20444;-71
2021/11/04 07:14:49;;;;;;;18.60;18.00;;;7.70;99.90;;;;;;5112074;27;20452;-71
2021/11/04 07:17:17;;;;;;;19.50;18.80;;;7.70;99.90;;;;;;5111919;27;20461;-71
2021/11/04 07:19:47;;;;;;;20.07;19.37;;;7.70;99.90;;;;;;5111802;28;20472;-70
2021/11/04 07:22:22;;;;;;;20.60;19.80;;;7.70;99.90;;;;;;5111600;28;20453;-71
2021/11/04 07:25:01;;;;;;;20.20;19.50;;;7.70;99.90;;;;;;5111938;28;20605;-70
2021/11/04 07:27:36;;;;;;;20.10;19.37;;;7.80;99.90;;;;;;5111643;27;20452;-72
2021/11/04 07:30:08;;;;;;;19.07;18.37;;;7.70;99.90;;;;;;5111555;28;20484;-71
2021/11/04 07:32:41;;;;;;;19.53;18.83;;;7.70;99.90;;;;;;5111939;28;20441;-70
2021/11/04 07:35:09;;;;;;;18.93;18.20;;;7.70;99.90;;;;;;5111563;28;20448;-71
2021/11/04 07:37:35;;;;;;;20.80;19.90;;;7.70;99.90;;;;;;5111753;28;20449;-73
2021/11/04 07:40:02;;;;;;;20.17;19.37;;;7.70;99.90;;;;;;5111636;28;20453;-71
2021/11/04 07:42:29;;;;;;;19.30;18.50;;;7.70;99.90;;;;;;5111492;28;20445;-72
2021/11/04 07:44:57;;;;;;;19.27;18.47;;;7.60;99.90;;;;;;5111216;28;21033;-73
2021/11/04 07:47:24;;;;;;;19.63;18.73;;;7.70;99.90;;;;;;5110333;28;20481;-71
2021/11/04 07:49:53;;;;;;;21.10;19.90;;;7.70;99.90;;;;;;5111599;27;20481;-70
2021/11/04 07:52:20;;;;;;;19.13;18.23;;;7.60;99.90;;;;;;5111431;28;20449;-71
2021/11/04 07:54:47;;;;;;;20.33;19.20;;;7.60;99.90;;;;;;5111261;28;20445;-73
2021/11/04 07:57:14;;;;;;;20.50;19.60;;;7.60;99.90;;;;;;5111290;28;20770;-71
2021/11/04 07:59:40;;;;;;;20.13;19.23;;;7.70;99.90;;;;;;5111037;28;20502;-72
2021/11/04 08:02:10;;;;;;;20.87;19.97;;;7.70;99.90;;;;;;5111446;28;20457;-72
2021/11/04 08:04:37;;;;;;;20.53;19.73;;;7.70;99.90;;;;;;5111321;28;20516;-72
2021/11/04 08:07:05;;;;;;;21.50;20.60;;;7.60;99.90;;;;;;5111593;28;20437;-71
2021/11/04 08:09:33;;;;;;;23.43;22.53;;;7.60;99.90;;;;;;5111050;28;20442;-71
2021/11/04 08:12:00;;;;;;;25.67;24.47;;;7.60;99.90;;;;;;5110973;28;20445;-72
2021/11/04 08:14:27;;;;;;;27.07;25.90;;;7.60;99.90;;;;;;5110704;28;20935;-73
2021/11/04 08:16:54;;;;;;;28.23;27.03;;;7.60;99.90;;;;;;5111053;27;20454;-73
2021/11/04 08:19:21;;;;;;;29.20;28.00;;;7.70;99.90;;;;;;5111062;28;20510;-73
2021/11/04 08:21:47;;;;;;;29.07;27.77;;;7.70;99.90;;;;;;5111228;28;20460;-72
2021/11/04 08:24:15;;;;;;;29.00;27.60;;;7.60;99.90;;;;;;5110784;28;20456;-73
2021/11/04 08:26:42;;;;;;;30.10;28.50;;;7.60;99.90;;;;;;5110883;28;20525;-73
2021/11/04 08:29:09;;;;;;;30.93;29.23;;;7.60;99.90;;;;;;5110866;28;20473;-72
2021/11/04 08:31:36;;;;;;;30.63;29.20;;;7.60;99.90;;;;;;5110865;28;20469;-73
2021/11/04 08:34:02;;;;;;;30.67;29.13;;;7.60;99.90;;;;;;5097109;28;20477;-72
2021/11/04 08:36:29;;;;;;;29.90;28.50;;;7.70;99.90;;;;;;5106793;28;20450;-73
2021/11/04 08:38:56;;;;;;;30.30;28.80;;;7.80;99.90;;;;;;5090104;28;20507;-72
2021/11/04 08:41:24;;;;;;;29.90;28.60;;;8.00;99.90;;;;;;5099652;28;20452;-72
2021/11/04 08:43:50;;;;;;;28.93;27.73;;;7.90;99.90;;;;;;5110982;28;20479;-73
2021/11/04 08:46:17;;;;;;;29.33;28.13;;;8.00;99.90;;;;;;5110673;28;20485;-73
2021/11/04 08:48:44;;;;;;;29.70;28.30;;;8.10;99.90;;;;;;5110706;28;20449;-73
2021/11/04 08:51:11;;;;;;;28.50;27.30;;;8.20;99.90;;;;;;5090702;28;20450;-73
2021/11/04 08:53:38;;;;;;;30.10;28.70;;;8.10;99.90;;;;;;5090244;28;20826;-74
2021/11/04 08:56:05;;;;;;;30.90;29.50;;;8.00;99.90;;;;;;5090604;28;20503;-74
2021/11/04 08:58:33;;;;;;;28.77;27.57;;;8.00;99.90;;;;;;5090348;28;20450;-73
2021/11/04 09:01:01;;;;;;;30.20;28.90;;;8.00;99.90;;;;;;5094490;28;20450;-73
2021/11/04 09:03:28;;;;;;;31.97;30.60;;;8.10;99.90;;;;;;5094309;28;20473;-73
2021/11/04 09:05:55;;;;;;;30.13;28.83;;;8.10;99.90;;;;;;5094182;28;20550;-73
2021/11/04 09:08:22;;;;;;;31.60;30.00;;;8.10;99.90;;;;;;5114867;28;20448;-73
2021/11/04 09:10:48;;;;;;;29.60;28.20;;;8.20;99.90;;;;;;5114514;28;20445;-73
2021/11/04 09:13:15;;;;;;;31.10;29.80;;;8.20;99.90;;;;;;5114841;28;20457;-74
2021/11/04 09:15:43;;;;;;;31.80;30.47;;;8.30;99.90;;;;;;5115133;28;20449;-75
2021/11/04 09:18:10;;;;;;;33.40;31.90;;;8.30;99.90;;;;;;5114693;28;20460;-75
2021/11/04 09:20:37;;;;;;;31.70;30.20;;;8.40;99.90;;;;;;5114935;27;20490;-74
2021/11/04 09:23:05;;;;;;;32.17;30.77;;;8.40;99.90;;;;;;5114797;28;20449;-73
2021/11/04 09:25:32;;;;;;;31.40;30.10;;;8.30;99.90;;;;;;5114603;28;20559;-73
2021/11/04 09:27:58;;;;;;;32.13;30.73;;;8.40;99.90;;;;;;5114621;28;20475;-75
2021/11/04 09:30:26;;;;;;;31.87;30.40;;;8.40;99.90;;;;;;5114286;28;20504;-75
2021/11/04 09:32:56;;;;;;;31.37;30.07;;;8.50;99.90;;;;;;5114608;27;20947;-75
2021/11/04 09:35:23;;;;;;;30.53;29.33;;;8.50;99.90;;;;;;5114436;28;20447;-74
2021/11/04 09:37:50;;;;;;;31.10;29.80;;;8.60;99.90;;;;;;5114580;28;20457;-73
2021/11/04 09:40:19;;;;;;;29.80;28.60;;;8.40;99.90;;;;;;5114400;28;20509;-74
2021/11/04 09:42:47;;;;;;;30.33;29.13;;;8.50;99.90;;;;;;5114421;28;20453;-74
2021/11/04 09:45:14;;;;;;;29.77;28.57;;;8.50;99.90;;;;;;5114263;28;20489;-74
2021/11/04 09:47:41;;;;;;;30.13;28.93;;;8.40;99.90;;;;;;5114243;28;20448;-74
2021/11/04 09:50:11;;;;;;;30.77;29.40;;;8.30;99.90;;;;;;5114349;28;20456;-72
2021/11/04 09:52:40;;;;;;;30.50;29.30;;;8.40;99.90;;;;;;5114162;28;20453;-73
2021/11/04 09:55:08;;;;;;;30.00;28.70;;;8.30;99.90;;;;;;5114299;28;20452;-74
2021/11/04 09:57:35;;;;;;;29.87;28.10;;;8.30;99.90;;;;;;5114341;28;20452;-73
2021/11/04 10:00:02;;;;;;;29.50;28.30;;;8.30;99.90;;;;;;5114018;28;20452;-73
2021/11/04 10:02:29;;;;;;;29.80;28.50;;;8.30;99.90;;;;;;5113900;28;20445;-73
2021/11/04 10:05:05;;;;;;;30.17;28.87;;;8.40;99.90;;;;;;5113837;28;20449;-73
2021/11/04 10:07:43;;;;;;;30.70;29.50;;;8.40;99.90;;;;;;5106919;28;20441;-72
2021/11/04 10:10:10;;;;;;;31.70;30.40;;;8.40;99.90;;;;;;5092457;28;20462;-73
2021/11/04 10:12:54;;;;;;;29.87;28.67;;;8.30;99.90;;;;;;5092875;28;20831;-72
2021/11/04 10:15:21;;;;;;;29.60;28.40;;;8.30;99.90;;;;;;5093514;28;20453;-72
2021/11/04 10:17:48;;;;;;;30.00;28.80;;;8.30;99.90;;;;;;5093121;28;20450;-73
2021/11/04 10:20:17;;;;;;;28.40;27.30;;;8.20;99.90;;;;;;5092777;28;20450;-73
2021/11/04 10:22:58;;;;;;;28.33;27.23;;;8.20;99.90;;;;;;5092645;28;20458;-71
2021/11/04 10:25:25;;;;;;;29.43;28.27;;;8.20;99.90;;;;;;5092737;28;20493;-72
2021/11/04 10:27:52;;;;;;;29.20;28.00;;;8.20;99.90;;;;;;5112098;28;20454;-74
2021/11/04 10:30:37;;;;;;;27.33;26.33;;;8.20;99.90;;;;;;5112886;28;20844;-76
2021/11/04 10:33:18;;;;;;;29.17;28.07;;;8.30;99.90;;;;;;5113408;28;20465;-76
2021/11/04 10:35:51;;;;;;;30.10;29.00;;;8.30;99.90;;;;;;5092827;28;20453;-74
2021/11/04 10:38:20;;;;;;;30.90;29.70;;;8.50;99.90;;;;;;5092826;28;20458;-76
2021/11/04 10:40:47;;;;;;;30.23;29.03;;;8.40;99.90;;;;;;5092790;28;20443;-75
2021/11/04 10:43:13;;;;;;;31.37;30.07;;;8.40;99.90;;;;;;5092797;28;20449;-75
2021/11/04 10:45:40;;;;;;;31.77;30.47;;;8.30;99.90;;;;;;5092804;28;20489;-75
2021/11/04 10:48:17;;;;;;;31.43;30.13;;;8.40;99.90;;;;;;5092535;28;20450;-74
2021/11/04 10:50:45;;;;;;;32.93;31.53;;;8.40;99.90;;;;;;5092595;28;20478;-73
2021/11/04 10:53:13;;;;;;;32.87;31.37;;;8.50;99.90;;;;;;5092432;28;20836;-74
2021/11/04 10:55:42;;;;;;;32.97;31.37;;;8.50;99.90;;;;;;5092486;28;20504;-75
2021/11/04 10:58:26;;;;;;;32.70;31.30;;;8.30;99.90;;;;;;5092695;28;20438;-75
2021/11/04 11:00:53;;;;;;;31.40;30.10;;;8.20;99.90;;;;;;5092632;28;20442;-75
2021/11/04 11:03:23;;;;;;;29.77;28.47;;;8.30;99.90;;;;;;5092394;28;20446;-74
2021/11/04 11:05:50;;;;;;;31.30;29.90;;;8.40;99.90;;;;;;5092193;28;20488;-74
2021/11/04 11:08:17;;;;;;;31.60;30.30;;;8.40;99.90;;;;;;5092299;28;20450;-75
2021/11/04 11:10:45;;;;;;;31.43;30.13;;;8.40;99.90;;;;;;5092178;28;20753;-75
2021/11/04 11:13:12;;;;;;;31.60;30.20;;;8.50;99.90;;;;;;5092248;28;20462;-75
2021/11/04 11:15:42;;;;;;;32.00;30.60;;;8.60;99.90;;;;;;5092022;28;20449;-75
2021/11/04 11:18:10;;;;;;;31.90;30.50;;;8.70;99.90;;;;;;5091938;28;20468;-75
2021/11/04 11:20:42;;;;;;;33.20;31.60;;;8.70;99.90;;;;;;5092340;28;20485;-78
2021/11/04 11:23:12;;;;;;;32.97;31.57;;;8.90;99.90;;;;;;5091788;28;20563;-76
2021/11/04 11:25:39;;;;;;;32.00;30.60;;;9.10;99.90;;;;;;5103512;28;20569;-76
2021/11/04 11:28:07;;;;;;;32.57;31.10;;;9.00;99.90;;;;;;5112424;28;20449;-76
2021/11/04 11:30:34;;;;;;;32.43;30.93;;;8.90;99.90;;;;;;5112157;28;21051;-76
2021/11/04 11:33:17;;;;;;;33.37;31.87;;;8.90;99.90;;;;;;5112286;28;20464;-76
2021/11/04 11:36:09;;;;;;;32.60;31.07;;;8.80;99.90;;;;;;5091870;28;20449;-76
2021/11/04 11:39:14;;;;;;;32.50;31.10;;;8.70;99.90;;;;;;5091820;28;20478;-76
2021/11/04 11:42:08;;;;;;;31.33;29.93;;;8.80;99.90;;;;;;5091680;28;20458;-76
2021/11/04 11:44:40;;;;;;;32.50;30.90;;;8.70;99.90;;;;;;5092060;28;20482;-75
2021/11/04 11:47:09;;;;;;;32.60;31.10;;;8.70;99.90;;;;;;5091637;28;20834;-76
2021/11/04 11:49:37;;;;;;;31.07;29.67;;;8.80;99.90;;;;;;5091505;28;20453;-76
2021/11/04 11:52:05;;;;;;;32.37;30.77;;;8.80;99.90;;;;;;5091773;28;20445;-76
2021/11/04 11:55:07;;;;;;;33.27;31.67;;;8.80;99.90;;;;;;5091604;28;20454;-75
2021/11/04 11:57:35;;;;;;;32.10;30.50;;;8.80;99.90;;;;;;5091468;28;20450;-74
2021/11/04 12:00:06;;;;;;;32.50;31.00;;;8.50;99.90;;;;;;5091399;28;20491;-75
2021/11/04 12:02:52;;;;;;;31.67;30.17;;;8.50;99.90;;;;;;5091532;28;20481;-75
2021/11/04 12:05:39;;;;;;;31.77;30.17;;;8.50;99.90;;;;;;5091417;28;20450;-74
2021/11/04 12:08:32;;;;;;;32.23;30.73;;;8.50;99.90;;;;;;5091415;28;20446;-75
2021/11/04 12:10:59;;;;;;;31.93;30.40;;;8.50;99.90;;;;;;5091180;28;20560;-76
2021/11/04 12:13:40;;;;;;;32.77;31.27;;;8.50;99.90;;;;;;5091120;28;20456;-75
2021/11/04 12:16:20;;;;;;;28.50;27.20;;;8.50;99.90;;;;;;5091551;28;20450;-75
2021/11/04 12:18:54;;;;;;;32.47;30.73;;;8.60;99.90;;;;;;5091025;28;20449;-75
2021/11/04 12:21:26;;;;;;;29.30;27.93;;;8.80;99.90;;;;;;5091170;28;20449;-75
2021/11/04 12:23:54;;;;;;;29.10;27.70;;;8.90;99.90;;;;;;5090877;28;20458;-75
2021/11/04 12:26:34;;;;;;;28.53;27.03;;;8.70;99.90;;;;;;5090971;28;20487;-76
2021/11/04 12:29:03;;;;;;;25.90;24.60;;;8.90;99.90;;;;;;5090713;28;20482;-77
2021/11/04 12:31:33;;;;;;;27.03;25.73;;;8.80;99.90;;;;;;5090796;28;20555;-74
2021/11/04 12:34:01;;;;;;;24.87;23.60;;;8.80;99.90;;;;;;5096077;28;20457;-80
2021/11/04 12:36:34;;;;;;;23.43;22.33;;;8.90;99.90;;;;;;5111312;28;20506;-78
2021/11/04 12:39:01;;;;;;;22.60;21.60;;;9.10;99.90;;;;;;5111222;28;20446;-74
2021/11/04 12:41:28;;;;;;;22.07;21.07;;;9.30;99.90;;;;;;5111298;28;20456;-78
2021/11/04 12:44:01;;;;;;;20.40;19.50;;;9.40;99.90;;;;;;5111174;28;20453;-77